Aeroporto :
LOGIN :

Iscrizione | Disclaimer

   EN    FR    IT 

 










Sommario :    VFR   VFR Marginale   IFR   IFR Intensivo   IFR Molto Intensivo
Visibilità : 
Base nubi : 
>= 8 km
>= 3000ft
5 / 8 km
1000 / 3000 ft
1500m / 5 km
500 / 1000 ft
800 / 1500m
200 / 500 ft
< 800m
< 200 ft
Simboli :   Temporali  Nebbia  Neve Forte  Precipitazioni Forti  Vento > 20 kt
SIGMETs :   Varie  Temporali  Ghiacco  Turbolenza  Onda orograficha  Ceneri Vulcaniche






- Altitudine del aeroporto : 526 ft
- Codice IATA : LTN


EGGW - London Luton

ULTIMO METAR :
  • 221450Z AUTO 31008KT 9999 OVC016 06/03 Q1036

METARs OBSOLETI :
  • 221420Z AUTO 30008KT 9999 OVC016 06/03 Q1036
  • 221350Z 30007KT 9999 BKN016 06/03 Q1037
  • 221320Z 30008KT 9999 BKN015 06/03 Q1037
  • 221250Z 29008KT 9999 SCT013 06/03 Q1037
  • 221220Z AUTO 30008KT 9999 OVC013 05/03 Q1037
  • 221150Z AUTO 28009KT 9999 OVC013 05/03 Q1037

TAF AMD TAF EGGW
Valido dal 22 a 12 ore il 23 a 12 ore UTC


221223Z 2212/2312 30008KT 9999 BKN014
TEMPO 2212/2218 NSC
BECMG 2218/2220 BKN016
PROB40
TEMPO 2221/2311 7000 BKN010
ATIS : +44 1582 395 204



MetMap, La meteo Aeronautica in un colpo d'occhio ! - Copyright ORBIFLY Dicembre 2007 - Disclaimer

ORBIFLY MET'MAP TEAM :

Programmazione e sviluppo : Alexandra Zaïnal
Concezione : Baudouin d'Aumeries
Aiuto per la programmazione : Marc-Olivier Méhu
Supporto tecnico e logistico : Manuel Goepfert
Aiuto per la traduzione : Arnaldo La Scala

Contatto : metmap@orbifly.com




FONTI E CREDITI :

   NOAA